Time;durP1;ratioP1;P1;durP2;ratioP2;P2;SDS_P1;SDS_P2;PMS_P1;PMS_P2;Temp;Humidity;BMP_temperature;BMP_pressure;BME280_temperature;BME280_humidity;BME280_pressure;Samples;Min_cycle;Max_cycle;Signal;HPM_P1;HPM_P2
2024/01/03 00:01:26;;;;;;;0.08;0.08;;;;;;;;;;5059944;28;20053;-89
2024/01/03 00:03:57;;;;;;;0.10;0.10;;;;;;;;;;5046804;28;20490;-90
2024/01/03 00:06:26;;;;;;;0.00;0.00;;;;;;;;;;5059373;28;20049;-89
2024/01/03 00:08:53;;;;;;;1.08;0.10;;;;;;;;;;5046054;28;20069;-89
2024/01/03 00:11:32;;;;;;;0.10;0.10;;;;;;;;;;5046163;28;20049;-89
2024/01/03 00:14:04;;;;;;;0.20;0.00;;;;;;;;;;5035967;28;20123;-88
2024/01/03 00:16:32;;;;;;;0.25;0.10;;;;;;;;;;5060154;28;20458;-90
2024/01/03 00:19:00;;;;;;;0.45;0.10;;;;;;;;;;5045444;28;20056;-88
2024/01/03 00:21:29;;;;;;;0.10;0.00;;;;;;;;;;5045183;28;20493;-89
2024/01/03 00:23:58;;;;;;;0.00;0.00;;;;;;;;;;5053753;28;20045;-86
2024/01/03 00:26:26;;;;;;;3.00;0.00;;;;;;;;;;5022952;28;20064;-90
2024/01/03 00:28:53;;;;;;;0.55;0.22;;;;;;;;;;5058685;28;20076;-87
2024/01/03 00:31:27;;;;;;;0.20;0.20;;;;;;;;;;5058009;28;20053;-88
2024/01/03 00:33:55;;;;;;;0.10;0.10;;;;;;;;;;5030342;28;20053;-90
2024/01/03 00:36:23;;;;;;;0.08;0.08;;;;;;;;;;5022492;28;20077;-90
2024/01/03 00:38:50;;;;;;;0.77;0.20;;;;;;;;;;5033539;28;20053;-90
2024/01/03 00:41:17;;;;;;;0.30;0.17;;;;;;;;;;5058501;28;20049;-90
2024/01/03 00:43:44;;;;;;;0.10;0.10;;;;;;;;;;5060919;28;20060;-89
2024/01/03 00:46:12;;;;;;;0.10;0.10;;;;;;;;;;5038291;28;20111;-90
2024/01/03 00:48:40;;;;;;;0.10;0.10;;;;;;;;;;5044455;28;20045;-89
2024/01/03 00:51:08;;;;;;;0.10;0.10;;;;;;;;;;5030418;28;20049;-88
2024/01/03 00:53:35;;;;;;;0.55;0.20;;;;;;;;;;5058159;28;20060;-90
2024/01/03 00:56:03;;;;;;;0.38;0.10;;;;;;;;;;5058082;28;20045;-90
2024/01/03 00:58:30;;;;;;;0.38;0.10;;;;;;;;;;5058762;28;20136;-90
2024/01/03 01:00:57;;;;;;;0.10;0.10;;;;;;;;;;5044873;28;20053;-89
2024/01/03 01:03:25;;;;;;;0.10;0.10;;;;;;;;;;5044333;28;20045;-89
2024/01/03 01:05:52;;;;;;;0.30;0.20;;;;;;;;;;5057885;28;20077;-89
2024/01/03 01:08:19;;;;;;;0.13;0.13;;;;;;;;;;5058026;28;20060;-90
2024/01/03 01:10:47;;;;;;;0.20;0.20;;;;;;;;;;5049542;28;20107;-91
2024/01/03 01:13:14;;;;;;;0.10;0.10;;;;;;;;;;5057320;28;20111;-90
2024/01/03 01:15:41;;;;;;;0.20;0.20;;;;;;;;;;5060559;28;20115;-91
2024/01/03 01:18:08;;;;;;;0.17;0.17;;;;;;;;;;5044677;28;20512;-89
2024/01/03 01:20:36;;;;;;;0.17;0.10;;;;;;;;;;5050057;28;20095;-88
2024/01/03 01:23:04;;;;;;;0.10;0.10;;;;;;;;;;5042467;28;20053;-89
2024/01/03 01:25:31;;;;;;;0.10;0.10;;;;;;;;;;5041991;28;20058;-89
2024/01/03 01:27:58;;;;;;;0.20;0.10;;;;;;;;;;5044461;28;20111;-90
2024/01/03 01:30:25;;;;;;;0.98;0.25;;;;;;;;;;5044050;28;20048;-88
2024/01/03 01:32:53;;;;;;;0.10;0.10;;;;;;;;;;5057229;28;20053;-88
2024/01/03 01:35:20;;;;;;;0.20;0.20;;;;;;;;;;5057294;28;20049;-89
2024/01/03 01:37:48;;;;;;;0.20;0.20;;;;;;;;;;5057283;28;20567;-88
2024/01/03 01:40:15;;;;;;;0.10;0.10;;;;;;;;;;5057342;28;20049;-89
2024/01/03 01:42:44;;;;;;;0.10;0.10;;;;;;;;;;5057513;28;20053;-89
2024/01/03 01:45:11;;;;;;;0.10;0.10;;;;;;;;;;5040652;28;20123;-89
2024/01/03 01:47:39;;;;;;;0.20;0.20;;;;;;;;;;5055105;28;20083;-89
2024/01/03 01:50:08;;;;;;;0.73;0.20;;;;;;;;;;5033107;28;20048;-87
2024/01/03 01:52:35;;;;;;;0.75;0.15;;;;;;;;;;5041917;28;20044;-89
2024/01/03 01:55:03;;;;;;;0.22;0.15;;;;;;;;;;5056647;28;20123;-89
2024/01/03 01:57:31;;;;;;;0.80;0.10;;;;;;;;;;5058281;28;20119;-89
2024/01/03 02:00:00;;;;;;;0.63;0.13;;;;;;;;;;5043989;28;20048;-88
2024/01/03 02:02:28;;;;;;;0.22;0.10;;;;;;;;;;5044204;28;20052;-88
2024/01/03 02:04:55;;;;;;;0.85;0.25;;;;;;;;;;5043697;28;20106;-89
2024/01/03 02:07:24;;;;;;;0.10;0.10;;;;;;;;;;5043824;28;20079;-87
2024/01/03 02:09:52;;;;;;;0.93;0.10;;;;;;;;;;5040486;28;20103;-89
2024/01/03 02:12:29;;;;;;;1.85;0.50;;;;;;;;;;5040503;28;20046;-90
2024/01/03 02:14:57;;;;;;;0.20;0.10;;;;;;;;;;5033820;28;20049;-89
2024/01/03 02:17:24;;;;;;;1.65;0.20;;;;;;;;;;5059310;28;20107;-90
2024/01/03 02:19:51;;;;;;;0.20;0.20;;;;;;;;;;5047060;28;20143;-89
2024/01/03 02:22:19;;;;;;;0.32;0.28;;;;;;;;;;5048018;28;20077;-90
2024/01/03 02:24:46;;;;;;;1.38;0.20;;;;;;;;;;5044361;28;20049;-90
2024/01/03 02:27:13;;;;;;;0.13;0.13;;;;;;;;;;5061006;28;20053;-89
2024/01/03 02:29:40;;;;;;;0.05;0.05;;;;;;;;;;5063461;28;20048;-90
2024/01/03 02:32:08;;;;;;;0.85;0.17;;;;;;;;;;5049416;28;20072;-89
2024/01/03 02:34:35;;;;;;;0.20;0.10;;;;;;;;;;5059713;28;20096;-89
2024/01/03 02:37:03;;;;;;;1.35;0.10;;;;;;;;;;5051746;28;20136;-89
2024/01/03 02:39:30;;;;;;;0.03;0.03;;;;;;;;;;5045417;28;20053;-88
2024/01/03 02:41:57;;;;;;;1.77;0.20;;;;;;;;;;5051074;28;20050;-89
2024/01/03 02:44:27;;;;;;;3.17;0.17;;;;;;;;;;5060641;28;20050;-89
2024/01/03 02:46:55;;;;;;;0.70;0.20;;;;;;;;;;5043122;28;20087;-89
2024/01/03 02:49:22;;;;;;;0.22;0.22;;;;;;;;;;5044024;28;20061;-89
2024/01/03 02:51:50;;;;;;;0.25;0.20;;;;;;;;;;5047207;28;20049;-89
2024/01/03 02:54:17;;;;;;;0.45;0.10;;;;;;;;;;5047351;28;20418;-89
2024/01/03 02:56:44;;;;;;;0.52;0.10;;;;;;;;;;5044318;28;20049;-90
2024/01/03 02:59:12;;;;;;;0.55;0.20;;;;;;;;;;5060048;28;20119;-89
2024/01/03 03:01:39;;;;;;;0.85;0.25;;;;;;;;;;5057890;28;20056;-89
2024/01/03 03:04:06;;;;;;;1.60;0.20;;;;;;;;;;5035872;28;20114;-88
2024/01/03 03:06:34;;;;;;;0.25;0.20;;;;;;;;;;5045635;28;20063;-89
2024/01/03 03:09:01;;;;;;;0.43;0.20;;;;;;;;;;5043818;28;20057;-88
2024/01/03 03:11:42;;;;;;;1.00;0.40;;;;;;;;;;5044390;28;20060;-89
2024/01/03 03:14:10;;;;;;;1.45;0.30;;;;;;;;;;5046448;28;20049;-90
2024/01/03 03:16:37;;;;;;;1.10;0.25;;;;;;;;;;5044780;28;20060;-89
2024/01/03 03:19:05;;;;;;;1.08;0.30;;;;;;;;;;5059548;28;20058;-88
2024/01/03 03:21:33;;;;;;;1.02;0.30;;;;;;;;;;5061503;28;20041;-89
2024/01/03 03:24:01;;;;;;;0.47;0.22;;;;;;;;;;5046580;28;20131;-89
2024/01/03 03:26:28;;;;;;;0.95;0.20;;;;;;;;;;5044676;28;20080;-89
2024/01/03 03:28:56;;;;;;;0.68;0.35;;;;;;;;;;5023951;28;20053;-89
2024/01/03 03:31:23;;;;;;;1.20;0.40;;;;;;;;;;5046467;28;20102;-88
2024/01/03 03:33:50;;;;;;;2.08;0.70;;;;;;;;;;5042600;28;20188;-88
2024/01/03 03:36:20;;;;;;;1.70;0.63;;;;;;;;;;5043172;28;20053;-88
2024/01/03 03:38:47;;;;;;;1.58;0.30;;;;;;;;;;5050901;28;20387;-88
2024/01/03 03:41:15;;;;;;;0.95;0.30;;;;;;;;;;5059334;28;20103;-88
2024/01/03 03:43:42;;;;;;;0.17;0.10;;;;;;;;;;5061995;28;20072;-88
2024/01/03 03:46:10;;;;;;;0.17;0.17;;;;;;;;;;5046502;28;20099;-89
2024/01/03 03:48:38;;;;;;;0.40;0.35;;;;;;;;;;5044505;28;20053;-89
2024/01/03 03:51:05;;;;;;;0.52;0.20;;;;;;;;;;5068006;28;20069;-89
2024/01/03 03:53:32;;;;;;;1.13;0.22;;;;;;;;;;5062871;28;20118;-89
2024/01/03 03:56:00;;;;;;;1.92;0.38;;;;;;;;;;5046410;28;20486;-89
2024/01/03 03:58:27;;;;;;;2.25;0.20;;;;;;;;;;5046326;28;20079;-89
2024/01/03 04:00:54;;;;;;;1.40;0.20;;;;;;;;;;5037647;28;20450;-89
2024/01/03 04:03:21;;;;;;;3.33;0.57;;;;;;;;;;5038945;28;20064;-89
2024/01/03 04:05:49;;;;;;;0.90;0.30;;;;;;;;;;5050808;28;20056;-89
2024/01/03 04:08:16;;;;;;;0.52;0.20;;;;;;;;;;5059291;28;20053;-89
2024/01/03 04:10:43;;;;;;;1.27;1.13;;;;;;;;;;5061892;28;20076;-89
2024/01/03 04:13:11;;;;;;;4.63;2.60;;;;;;;;;;5045714;28;20045;-89
2024/01/03 04:15:38;;;;;;;8.52;6.07;;;;;;;;;;5043621;28;20056;-89
2024/01/03 04:18:05;;;;;;;3.05;2.58;;;;;;;;;;5064736;28;20068;-89
2024/01/03 04:20:33;;;;;;;0.40;0.40;;;;;;;;;;5043934;28;20486;-88
2024/01/03 04:23:01;;;;;;;2.95;0.57;;;;;;;;;;5058684;28;20045;-89
2024/01/03 04:25:29;;;;;;;0.82;0.30;;;;;;;;;;5059315;28;20057;-89
2024/01/03 04:27:56;;;;;;;1.40;0.30;;;;;;;;;;5032835;28;20049;-88
2024/01/03 04:30:23;;;;;;;0.95;0.40;;;;;;;;;;5058576;28;20057;-88
2024/01/03 04:32:50;;;;;;;1.60;0.57;;;;;;;;;;5045184;28;20072;-89
2024/01/03 04:35:18;;;;;;;1.35;0.30;;;;;;;;;;5045264;28;20048;-89
2024/01/03 04:37:45;;;;;;;1.85;0.63;;;;;;;;;;5042369;28;20107;-89
2024/01/03 04:40:13;;;;;;;1.20;0.40;;;;;;;;;;5057461;28;20057;-90
2024/01/03 04:42:40;;;;;;;1.40;0.40;;;;;;;;;;5058470;28;20561;-89
2024/01/03 04:45:07;;;;;;;2.35;0.40;;;;;;;;;;5041743;28;20115;-89
2024/01/03 04:47:35;;;;;;;4.70;0.55;;;;;;;;;;5043178;28;20057;-89
2024/01/03 04:50:02;;;;;;;3.72;1.17;;;;;;;;;;5045114;28;20059;-88
2024/01/03 04:52:29;;;;;;;4.25;0.63;;;;;;;;;;5027938;28;20053;-90
2024/01/03 04:54:56;;;;;;;5.30;0.57;;;;;;;;;;5057916;28;20461;-91
2024/01/03 04:57:24;;;;;;;2.85;0.50;;;;;;;;;;5058098;28;20053;-90
2024/01/03 04:59:51;;;;;;;3.38;0.45;;;;;;;;;;5058027;28;20053;-89
2024/01/03 05:02:18;;;;;;;1.80;0.40;;;;;;;;;;5058121;28;20073;-89
2024/01/03 05:04:46;;;;;;;3.13;0.82;;;;;;;;;;5064329;28;20048;-90
2024/01/03 05:07:13;;;;;;;1.17;0.65;;;;;;;;;;5059320;28;20053;-90
2024/01/03 05:09:40;;;;;;;3.67;0.63;;;;;;;;;;5042526;28;20482;-90
2024/01/03 05:12:07;;;;;;;1.20;0.63;;;;;;;;;;5057908;28;20159;-89
2024/01/03 05:14:35;;;;;;;1.55;0.60;;;;;;;;;;5057180;28;20544;-90
2024/01/03 05:17:02;;;;;;;4.50;1.10;;;;;;;;;;5055014;28;20053;-90
2024/01/03 05:19:29;;;;;;;1.75;0.52;;;;;;;;;;5036385;28;20487;-89
2024/01/03 05:21:56;;;;;;;1.70;0.50;;;;;;;;;;5045122;28;20045;-89
2024/01/03 05:24:24;;;;;;;3.03;0.80;;;;;;;;;;5044612;28;20106;-89
2024/01/03 05:26:51;;;;;;;1.35;0.70;;;;;;;;;;5057827;28;20099;-89
2024/01/03 05:29:18;;;;;;;4.47;1.20;;;;;;;;;;5040962;28;20042;-90
2024/01/03 05:31:46;;;;;;;1.35;0.95;;;;;;;;;;5060663;28;20048;-89
2024/01/03 05:34:13;;;;;;;2.38;1.02;;;;;;;;;;5044065;28;20064;-90
2024/01/03 05:36:40;;;;;;;2.20;0.50;;;;;;;;;;5041878;28;20140;-90
2024/01/03 05:39:08;;;;;;;3.42;0.68;;;;;;;;;;5057461;28;20049;-89
2024/01/03 05:41:35;;;;;;;2.05;0.40;;;;;;;;;;5058984;28;20387;-90
2024/01/03 05:44:02;;;;;;;6.80;0.98;;;;;;;;;;5038809;28;20056;-90
2024/01/03 05:46:29;;;;;;;5.45;0.70;;;;;;;;;;5041867;28;20084;-88
2024/01/03 05:48:57;;;;;;;3.55;0.77;;;;;;;;;;5044376;28;20049;-89
2024/01/03 05:51:24;;;;;;;3.88;0.77;;;;;;;;;;5043818;28;20052;-89
2024/01/03 05:53:51;;;;;;;4.10;0.70;;;;;;;;;;5040583;28;20575;-88
2024/01/03 05:56:19;;;;;;;1.50;0.55;;;;;;;;;;5041793;28;20049;-89
2024/01/03 05:58:47;;;;;;;1.55;0.47;;;;;;;;;;5060564;28;20059;-89
2024/01/03 06:01:14;;;;;;;3.50;1.00;;;;;;;;;;5044340;28;20118;-90
2024/01/03 06:03:41;;;;;;;4.15;1.30;;;;;;;;;;5042858;28;20467;-91
2024/01/03 06:06:09;;;;;;;2.65;0.63;;;;;;;;;;5057298;28;20061;-89
2024/01/03 06:08:37;;;;;;;3.75;0.90;;;;;;;;;;5059150;28;20057;-89
2024/01/03 06:11:05;;;;;;;2.00;0.63;;;;;;;;;;5044082;28;20045;-91
2024/01/03 06:13:32;;;;;;;4.30;0.75;;;;;;;;;;5042496;28;20134;-90
2024/01/03 06:16:00;;;;;;;5.43;0.88;;;;;;;;;;5057248;28;20084;-91
2024/01/03 06:18:27;;;;;;;3.20;0.80;;;;;;;;;;5056186;28;20057;-89
2024/01/03 06:20:54;;;;;;;1.95;0.70;;;;;;;;;;5042669;28;20065;-89
2024/01/03 06:23:24;;;;;;;6.72;0.80;;;;;;;;;;5043846;28;20464;-89
2024/01/03 06:25:52;;;;;;;3.97;0.60;;;;;;;;;;5049536;28;20045;-86
2024/01/03 06:28:21;;;;;;;2.28;0.75;;;;;;;;;;5057307;28;20050;-90
2024/01/03 06:30:49;;;;;;;3.83;0.80;;;;;;;;;;5049013;28;20076;-90
2024/01/03 06:33:16;;;;;;;5.78;0.77;;;;;;;;;;5056847;28;20050;-90
2024/01/03 06:35:44;;;;;;;2.47;0.57;;;;;;;;;;5048870;28;20054;-89
2024/01/03 06:38:11;;;;;;;1.08;0.50;;;;;;;;;;5055583;28;20050;-90
2024/01/03 06:40:38;;;;;;;3.08;0.82;;;;;;;;;;5058893;28;20050;-90
2024/01/03 06:43:06;;;;;;;4.10;0.75;;;;;;;;;;5043813;28;20049;-90
2024/01/03 06:45:34;;;;;;;2.83;0.93;;;;;;;;;;5042017;28;20053;-89
2024/01/03 06:48:02;;;;;;;3.03;0.52;;;;;;;;;;5056876;28;20042;-89
2024/01/03 06:50:29;;;;;;;1.88;0.73;;;;;;;;;;5057540;28;20061;-90
2024/01/03 06:52:57;;;;;;;3.60;0.68;;;;;;;;;;5030803;28;20410;-89
2024/01/03 06:55:24;;;;;;;3.80;0.47;;;;;;;;;;5056575;28;20057;-90
2024/01/03 06:57:53;;;;;;;2.00;0.68;;;;;;;;;;5039855;28;20045;-90
2024/01/03 07:00:20;;;;;;;4.82;0.93;;;;;;;;;;5040576;28;20111;-90
2024/01/03 07:02:47;;;;;;;3.88;0.63;;;;;;;;;;5032058;28;20049;-90
2024/01/03 07:05:15;;;;;;;3.88;0.70;;;;;;;;;;5059701;28;20053;-90
2024/01/03 07:07:43;;;;;;;2.53;0.80;;;;;;;;;;5062998;28;20110;-90
2024/01/03 07:10:10;;;;;;;7.00;1.55;;;;;;;;;;5047107;28;20049;-89
2024/01/03 07:12:38;;;;;;;3.22;1.00;;;;;;;;;;5038672;28;20049;-91
2024/01/03 07:15:06;;;;;;;3.78;0.50;;;;;;;;;;5046764;28;20490;-90
2024/01/03 07:17:33;;;;;;;5.68;0.80;;;;;;;;;;5045408;28;20071;-89
2024/01/03 07:20:01;;;;;;;5.60;0.88;;;;;;;;;;5059527;28;20080;-90
2024/01/03 07:22:28;;;;;;;4.60;0.98;;;;;;;;;;5059737;28;20060;-89
2024/01/03 07:24:56;;;;;;;4.63;1.05;;;;;;;;;;5060065;28;20482;-90
2024/01/03 07:27:23;;;;;;;4.03;1.10;;;;;;;;;;5068241;28;20053;-88
2024/01/03 07:29:50;;;;;;;5.10;1.48;;;;;;;;;;5059995;28;20067;-92
2024/01/03 07:32:17;;;;;;;3.15;0.88;;;;;;;;;;5059734;28;20056;-89
2024/01/03 07:34:44;;;;;;;5.85;1.00;;;;;;;;;;5061856;28;20050;-88
2024/01/03 07:37:12;;;;;;;2.63;0.90;;;;;;;;;;5047317;28;20406;-90
2024/01/03 07:39:39;;;;;;;3.47;0.90;;;;;;;;;;5045645;28;20548;-91
2024/01/03 07:42:07;;;;;;;1.85;0.50;;;;;;;;;;5046628;28;20049;-88
2024/01/03 07:44:41;;;;;;;3.08;0.80;;;;;;;;;;5044907;28;20057;-90
2024/01/03 07:47:09;;;;;;;5.38;1.45;;;;;;;;;;5059566;28;20470;-91
2024/01/03 07:49:36;;;;;;;2.00;0.50;;;;;;;;;;5034561;28;20065;-87
2024/01/03 07:52:04;;;;;;;2.63;0.73;;;;;;;;;;5059332;28;20382;-89
2024/01/03 07:54:31;;;;;;;3.25;0.88;;;;;;;;;;5060494;28;20053;-90
2024/01/03 07:56:58;;;;;;;1.42;0.60;;;;;;;;;;5046616;28;20064;-89
2024/01/03 07:59:26;;;;;;;1.80;0.70;;;;;;;;;;5046125;28;20520;-88
2024/01/03 08:01:53;;;;;;;2.53;0.57;;;;;;;;;;5059012;28;20113;-92
2024/01/03 08:04:21;;;;;;;4.00;0.50;;;;;;;;;;5043501;28;20049;-89
2024/01/03 08:06:48;;;;;;;4.20;1.20;;;;;;;;;;5051353;28;20052;-89
2024/01/03 08:09:16;;;;;;;1.85;0.68;;;;;;;;;;5059560;28;20100;-90
2024/01/03 08:11:43;;;;;;;4.15;0.85;;;;;;;;;;5056242;28;20058;-89
2024/01/03 08:14:10;;;;;;;4.95;0.68;;;;;;;;;;5028942;28;20140;-90
2024/01/03 08:16:37;;;;;;;5.45;0.95;;;;;;;;;;5061406;28;20050;-89
2024/01/03 08:19:04;;;;;;;3.38;0.75;;;;;;;;;;5045641;28;20079;-89
2024/01/03 08:21:33;;;;;;;3.05;1.27;;;;;;;;;;5044362;28;20057;-89
2024/01/03 08:24:00;;;;;;;2.95;0.60;;;;;;;;;;5058600;28;20080;-88
2024/01/03 08:26:27;;;;;;;2.20;0.50;;;;;;;;;;5042914;28;20060;-89
2024/01/03 08:28:55;;;;;;;4.97;0.77;;;;;;;;;;5040864;28;20052;-89
2024/01/03 08:31:22;;;;;;;4.57;0.90;;;;;;;;;;5041952;28;20057;-90
2024/01/03 08:33:49;;;;;;;4.53;0.90;;;;;;;;;;5041974;28;20103;-89
2024/01/03 08:36:17;;;;;;;5.95;1.10;;;;;;;;;;5058484;28;20045;-89
2024/01/03 08:38:45;;;;;;;2.97;0.80;;;;;;;;;;5044951;28;20056;-88
2024/01/03 08:41:19;;;;;;;5.97;1.02;;;;;;;;;;5030534;28;20056;-87
2024/01/03 08:43:47;;;;;;;6.53;0.90;;;;;;;;;;5061075;28;20490;-89
2024/01/03 08:46:14;;;;;;;3.67;1.20;;;;;;;;;;5045167;28;20049;-87
2024/01/03 08:48:42;;;;;;;4.80;0.98;;;;;;;;;;5043679;28;20078;-85
2024/01/03 08:51:13;;;;;;;4.45;1.23;;;;;;;;;;5069157;28;20064;-87
2024/01/03 08:53:41;;;;;;;5.00;1.10;;;;;;;;;;5060939;28;20049;-87
2024/01/03 08:56:15;;;;;;;6.13;0.90;;;;;;;;;;5044798;28;20059;-86
2024/01/03 08:58:43;;;;;;;6.70;1.23;;;;;;;;;;5043249;28;20087;-86
2024/01/03 09:01:20;;;;;;;3.22;0.90;;;;;;;;;;5056178;28;20049;-85
2024/01/03 09:03:48;;;;;;;5.28;0.82;;;;;;;;;;5032963;28;20057;-86
2024/01/03 09:06:21;;;;;;;5.95;1.10;;;;;;;;;;5041269;28;20128;-85
2024/01/03 09:08:54;;;;;;;9.18;1.35;;;;;;;;;;5046042;28;20045;-85
2024/01/03 09:11:25;;;;;;;5.63;1.77;;;;;;;;;;5037923;28;20050;-88
2024/01/03 09:13:53;;;;;;;5.38;0.93;;;;;;;;;;5037999;28;20150;-88
2024/01/03 09:16:22;;;;;;;5.18;0.82;;;;;;;;;;5044823;28;20111;-86
2024/01/03 09:18:50;;;;;;;2.47;0.77;;;;;;;;;;5032766;28;20057;-89
2024/01/03 09:21:18;;;;;;;4.68;1.30;;;;;;;;;;5034194;28;20498;-87
2024/01/03 09:23:45;;;;;;;5.65;1.55;;;;;;;;;;5043731;28;20079;-89
2024/01/03 09:26:14;;;;;;;4.50;1.13;;;;;;;;;;5043885;28;20060;-90
2024/01/03 09:28:41;;;;;;;7.15;1.60;;;;;;;;;;5042108;28;20044;-89
2024/01/03 09:31:09;;;;;;;6.95;1.73;;;;;;;;;;5057191;28;20049;-88
2024/01/03 09:33:37;;;;;;;5.80;1.10;;;;;;;;;;5058416;28;20076;-87
2024/01/03 09:36:05;;;;;;;4.05;1.15;;;;;;;;;;5043963;28;20053;-87
2024/01/03 09:38:32;;;;;;;3.10;0.88;;;;;;;;;;5045151;28;20131;-89
2024/01/03 09:40:59;;;;;;;11.18;1.77;;;;;;;;;;5039936;28;20053;-88
2024/01/03 09:43:27;;;;;;;5.80;1.00;;;;;;;;;;5040992;28;20144;-88
2024/01/03 09:45:54;;;;;;;3.55;0.93;;;;;;;;;;5031134;28;20052;-86
2024/01/03 09:48:22;;;;;;;3.92;0.77;;;;;;;;;;5056896;28;20064;-88
2024/01/03 09:50:50;;;;;;;4.57;1.00;;;;;;;;;;5044477;28;20390;-89
2024/01/03 09:53:18;;;;;;;1.98;0.70;;;;;;;;;;5043717;28;20053;-87
2024/01/03 09:55:45;;;;;;;8.38;0.90;;;;;;;;;;5020989;28;20103;-88
2024/01/03 09:58:13;;;;;;;3.70;0.73;;;;;;;;;;5034170;28;20485;-88
2024/01/03 10:00:40;;;;;;;4.03;1.02;;;;;;;;;;5041478;28;20057;-88
2024/01/03 10:03:07;;;;;;;1.42;0.70;;;;;;;;;;5057166;28;20065;-88
2024/01/03 10:05:35;;;;;;;2.10;0.63;;;;;;;;;;5057223;28;20083;-86
2024/01/03 10:08:19;;;;;;;3.28;1.10;;;;;;;;;;5044858;28;20057;-89
2024/01/03 10:10:46;;;;;;;5.10;0.57;;;;;;;;;;5040463;28;20057;-88
2024/01/03 10:13:15;;;;;;;1.90;0.60;;;;;;;;;;5041083;28;20104;-88
2024/01/03 10:15:44;;;;;;;1.33;0.57;;;;;;;;;;5048447;28;20116;-88
2024/01/03 10:18:13;;;;;;;1.23;0.50;;;;;;;;;;5057415;28;20076;-88
2024/01/03 10:20:45;;;;;;;1.65;0.63;;;;;;;;;;5059447;28;20049;-89
2024/01/03 10:23:16;;;;;;;0.90;0.38;;;;;;;;;;5044664;28;20056;-89
2024/01/03 10:25:44;;;;;;;2.10;0.82;;;;;;;;;;5041624;28;20136;-88
2024/01/03 10:28:16;;;;;;;0.85;0.30;;;;;;;;;;5040096;28;20049;-88
2024/01/03 10:30:44;;;;;;;2.03;0.55;;;;;;;;;;5041806;28;20057;-89
2024/01/03 10:33:11;;;;;;;4.25;0.60;;;;;;;;;;5054994;28;20561;-89
2024/01/03 10:35:45;;;;;;;1.67;0.60;;;;;;;;;;5042053;28;20049;-87
2024/01/03 10:38:15;;;;;;;0.70;0.38;;;;;;;;;;5056634;28;20111;-89
2024/01/03 10:40:44;;;;;;;2.22;0.35;;;;;;;;;;5046849;28;20057;-87
2024/01/03 10:43:11;;;;;;;3.97;0.45;;;;;;;;;;5048335;28;20131;-90
2024/01/03 10:45:39;;;;;;;0.98;0.50;;;;;;;;;;5046386;28;20103;-89
2024/01/03 10:48:06;;;;;;;3.10;0.52;;;;;;;;;;5060495;28;20054;-88
2024/01/03 10:50:34;;;;;;;0.70;0.30;;;;;;;;;;5052186;28;20121;-90
2024/01/03 10:53:06;;;;;;;2.97;0.63;;;;;;;;;;5060551;28;20073;-88
2024/01/03 10:55:36;;;;;;;2.55;0.45;;;;;;;;;;5062084;28;20053;-89
2024/01/03 10:58:10;;;;;;;2.25;0.75;;;;;;;;;;5047568;28;20049;-90
2024/01/03 11:00:37;;;;;;;1.15;0.60;;;;;;;;;;5045275;28;20075;-88
2024/01/03 11:03:26;;;;;;;1.85;0.43;;;;;;;;;;5060068;28;20063;-91
2024/01/03 11:06:04;;;;;;;3.15;0.90;;;;;;;;;;5036692;28;20056;-91
2024/01/03 11:08:40;;;;;;;1.88;0.70;;;;;;;;;;5061801;28;20079;-88
2024/01/03 11:11:08;;;;;;;2.78;0.60;;;;;;;;;;5047556;28;20482;-87
2024/01/03 11:13:38;;;;;;;1.65;0.47;;;;;;;;;;5044947;28;20064;-89
2024/01/03 11:16:06;;;;;;;2.85;0.85;;;;;;;;;;5057634;28;20441;-90
2024/01/03 11:18:42;;;;;;;3.17;0.50;;;;;;;;;;5049233;28;20571;-90
2024/01/03 11:21:37;;;;;;;1.35;0.50;;;;;;;;;;5069600;28;20088;-91
2024/01/03 11:24:07;;;;;;;2.75;0.82;;;;;;;;;;5047837;28;20549;-88
2024/01/03 11:26:54;;;;;;;3.13;0.93;;;;;;;;;;5043636;28;20060;-89
2024/01/03 11:29:46;;;;;;;1.05;0.43;;;;;;;;;;5030415;28;20046;-91
2024/01/03 11:32:14;;;;;;;3.58;0.70;;;;;;;;;;5038472;28;20432;-90
2024/01/03 11:34:45;;;;;;;0.35;0.25;;;;;;;;;;5062049;28;20056;-91
2024/01/03 11:37:19;;;;;;;2.40;1.50;;;;;;;;;;5046756;28;20049;-94
2024/01/03 11:39:50;;;;;;;1.48;0.60;;;;;;;;;;5043469;28;20069;-91
2024/01/03 11:42:21;;;;;;;3.05;0.70;;;;;;;;;;5059971;28;20053;-92
2024/01/03 11:45:04;;;;;;;3.20;0.68;;;;;;;;;;5051473;28;20053;-90
2024/01/03 11:47:33;;;;;;;2.65;0.80;;;;;;;;;;5061299;28;20053;-93
2024/01/03 11:50:03;;;;;;;2.67;0.80;;;;;;;;;;5046393;28;20440;-91
2024/01/03 11:52:35;;;;;;;1.30;0.60;;;;;;;;;;5045367;28;20048;-93
2024/01/03 11:55:10;;;;;;;1.95;0.82;;;;;;;;;;5059342;28;20053;-91
2024/01/03 11:57:40;;;;;;;3.13;0.63;;;;;;;;;;5061509;28;20561;-92
2024/01/03 12:00:08;;;;;;;0.43;0.35;;;;;;;;;;5046316;28;20421;-90
2024/01/03 12:02:36;;;;;;;2.08;0.30;;;;;;;;;;5044609;28;20155;-91
2024/01/03 12:05:04;;;;;;;3.88;0.70;;;;;;;;;;5056603;28;20063;-90
2024/01/03 12:07:33;;;;;;;0.88;0.45;;;;;;;;;;5028564;28;20072;-90
2024/01/03 12:10:00;;;;;;;0.63;0.40;;;;;;;;;;5058802;28;20041;-90
2024/01/03 12:12:31;;;;;;;2.10;0.30;;;;;;;;;;5060303;28;20189;-89
2024/01/03 12:14:58;;;;;;;0.73;0.38;;;;;;;;;;5036297;28;20458;-91
2024/01/03 12:17:29;;;;;;;0.60;0.32;;;;;;;;;;5023377;28;20259;-91
2024/01/03 12:20:14;;;;;;;0.63;0.30;;;;;;;;;;5058154;28;20049;-89
2024/01/03 12:22:41;;;;;;;0.95;0.50;;;;;;;;;;5044828;28;20494;-90
2024/01/03 12:25:16;;;;;;;2.75;0.80;;;;;;;;;;5045666;28;20049;-90
2024/01/03 12:27:43;;;;;;;1.77;0.93;;;;;;;;;;5043034;28;20079;-88
2024/01/03 12:30:15;;;;;;;0.50;0.50;;;;;;;;;;5056891;28;20045;-90
2024/01/03 12:32:43;;;;;;;1.48;0.40;;;;;;;;;;5043106;28;20057;-88
2024/01/03 12:35:12;;;;;;;1.42;0.38;;;;;;;;;;5065283;28;20053;-87
2024/01/03 12:37:42;;;;;;;1.85;0.35;;;;;;;;;;5061140;28;20061;-88
2024/01/03 12:40:13;;;;;;;0.68;0.32;;;;;;;;;;5031027;28;20053;-87
2024/01/03 12:42:40;;;;;;;2.38;0.52;;;;;;;;;;5061075;28;20084;-88
2024/01/03 12:45:09;;;;;;;1.05;0.80;;;;;;;;;;5045352;28;20498;-89
2024/01/03 12:47:38;;;;;;;1.88;0.77;;;;;;;;;;5043034;28;20059;-88
2024/01/03 12:50:07;;;;;;;1.40;1.30;;;;;;;;;;5058214;28;20336;-88
2024/01/03 12:52:35;;;;;;;1.35;0.60;;;;;;;;;;5043299;28;20049;-88
2024/01/03 12:55:03;;;;;;;2.10;1.00;;;;;;;;;;5045806;28;20053;-88
2024/01/03 12:57:30;;;;;;;0.98;0.77;;;;;;;;;;5043905;28;20088;-88
2024/01/03 12:59:58;;;;;;;2.70;0.95;;;;;;;;;;5038788;28;20045;-87
2024/01/03 13:02:26;;;;;;;2.72;1.08;;;;;;;;;;5035697;28;20077;-87
2024/01/03 13:04:54;;;;;;;2.05;0.95;;;;;;;;;;5044436;28;20486;-88
2024/01/03 13:07:21;;;;;;;1.35;0.73;;;;;;;;;;5046509;28;20045;-88
2024/01/03 13:09:48;;;;;;;3.72;1.05;;;;;;;;;;5034460;28;20486;-89
2024/01/03 13:12:18;;;;;;;2.38;1.20;;;;;;;;;;5057816;28;20111;-88
2024/01/03 13:14:46;;;;;;;6.15;1.30;;;;;;;;;;5060757;28;20048;-87
2024/01/03 13:17:14;;;;;;;3.47;0.82;;;;;;;;;;5045018;28;20106;-88
2024/01/03 13:19:41;;;;;;;2.42;0.70;;;;;;;;;;5035686;28;20053;-88
2024/01/03 13:22:10;;;;;;;4.80;0.80;;;;;;;;;;5044752;28;20049;-88
2024/01/03 13:24:39;;;;;;;5.38;0.55;;;;;;;;;;5042652;28;20045;-88
2024/01/03 13:27:06;;;;;;;4.63;0.65;;;;;;;;;;5057565;28;20049;-89
2024/01/03 13:29:33;;;;;;;2.78;0.73;;;;;;;;;;5059512;28;20103;-88
2024/01/03 13:32:01;;;;;;;1.17;0.47;;;;;;;;;;5044801;28;20482;-88
2024/01/03 13:34:28;;;;;;;3.15;0.60;;;;;;;;;;5043752;28;20040;-89
2024/01/03 13:36:56;;;;;;;3.05;0.90;;;;;;;;;;5057315;28;20056;-88
2024/01/03 13:39:23;;;;;;;1.75;0.80;;;;;;;;;;5057439;28;20049;-88
2024/01/03 13:41:50;;;;;;;2.47;0.68;;;;;;;;;;5044514;28;20493;-88
2024/01/03 13:44:18;;;;;;;3.72;0.70;;;;;;;;;;5044726;28;20049;-89
2024/01/03 13:46:46;;;;;;;3.35;0.55;;;;;;;;;;5038561;28;20123;-89
2024/01/03 13:49:13;;;;;;;3.45;0.98;;;;;;;;;;5040374;28;20083;-89
2024/01/03 13:51:41;;;;;;;2.60;0.68;;;;;;;;;;5045372;28;20103;-88
2024/01/03 13:54:09;;;;;;;4.82;0.93;;;;;;;;;;5057133;28;20076;-89
2024/01/03 13:56:36;;;;;;;3.80;1.25;;;;;;;;;;5059013;28;20213;-90
2024/01/03 13:59:04;;;;;;;6.22;1.63;;;;;;;;;;5044385;28;20076;-89
2024/01/03 14:01:31;;;;;;;4.57;0.80;;;;;;;;;;5043222;28;20056;-89
2024/01/03 14:03:58;;;;;;;3.60;0.95;;;;;;;;;;5057097;28;20041;-89
2024/01/03 14:06:25;;;;;;;7.30;1.17;;;;;;;;;;5057452;28;20469;-88
2024/01/03 14:08:53;;;;;;;5.82;1.05;;;;;;;;;;5035824;28;20132;-88
2024/01/03 14:11:21;;;;;;;3.05;0.90;;;;;;;;;;5036532;28;20053;-88
2024/01/03 14:13:49;;;;;;;7.75;1.73;;;;;;;;;;5046673;28;20056;-89
2024/01/03 14:16:16;;;;;;;3.42;1.17;;;;;;;;;;5048394;28;20048;-89
2024/01/03 14:18:44;;;;;;;3.65;1.10;;;;;;;;;;5044526;28;20503;-90
2024/01/03 14:21:11;;;;;;;6.72;0.90;;;;;;;;;;5054352;28;20058;-89
2024/01/03 14:23:39;;;;;;;3.65;1.10;;;;;;;;;;5043109;28;20063;-88
2024/01/03 14:26:10;;;;;;;3.47;0.93;;;;;;;;;;5061156;28;20171;-88
2024/01/03 14:28:41;;;;;;;7.68;1.25;;;;;;;;;;5062972;28;20100;-89
2024/01/03 14:31:09;;;;;;;4.57;0.80;;;;;;;;;;5048237;28;20060;-88
2024/01/03 14:33:36;;;;;;;4.55;1.10;;;;;;;;;;5045419;28;20075;-91
2024/01/03 14:36:04;;;;;;;6.68;1.08;;;;;;;;;;5060730;28;20502;-89
2024/01/03 14:38:34;;;;;;;5.70;1.27;;;;;;;;;;5060777;28;20132;-88
2024/01/03 14:41:10;;;;;;;6.05;1.02;;;;;;;;;;5060501;28;20051;-89
2024/01/03 14:43:43;;;;;;;4.22;1.05;;;;;;;;;;5062903;28;20147;-89
2024/01/03 14:46:12;;;;;;;4.97;1.33;;;;;;;;;;5047531;28;20385;-89
2024/01/03 14:48:40;;;;;;;6.70;1.20;;;;;;;;;;5045498;28;20049;-89
2024/01/03 14:51:08;;;;;;;6.30;1.25;;;;;;;;;;5044269;28;20068;-89